Latest Weather Observations for Albury

IDN60801

Issued at 9:02 am EDT Monday 23 January 2017 (issued every 30 minutes, with the page automatically refreshed every 10 minutes)

About weather observations | Map of weather stations | Latest weather observations for NSW | Other Formats
Station Details ID: 072160 Name: ALBURY AIRPORT AWS Lat: -36.07 Lon: 146.95 Height: 163.5 m
Data from the previous 72 hours. | See also: Recent months at Albury
Date/Time
EDT
Temp
°C
App
Temp
°C
Dew
Point
°C
Rel
Hum
%
Delta-T
°C
Wind Press
QNH
hPa
Press
MSL
hPa
Rain since
9am
mm
Dir  Spd
km/h
Gust
km/h
Spd
kts
Gust
kts
23/09:00am 23.3 24.8 14.6 58 5.2 CALM 0 7 0 4 1009.9 1009.1 0.0
23/08:30am 21.8 22.2 14.7 64 4.2 E 6 9 3 5 1010.4 1009.6 0.0
23/08:00am 20.6 20.7 14.5 68 3.6 SSE 7 11 4 6 1010.5 1009.7 0.0
23/07:30am 20.6 22.0 14.5 68 3.6 CALM 0 0 0 0 1010.2 1009.4 0.0
23/07:00am 19.8 21.3 14.6 72 3.1 CALM 0 0 0 0 1010.2 1009.4 0.0
23/06:30am 19.3 20.7 14.3 73 2.9 CALM 0 0 0 0 1010.2 1009.4 0.0
23/06:00am 19.5 20.7 13.9 70 3.2 CALM 0 0 0 0 1010.0 1009.2 0.0
23/05:30am 19.6 20.3 13.5 68 3.5 SSE 2 7 1 4 1009.6 1008.7 0.0
23/05:00am 19.8 20.8 13.3 66 3.7 CALM 0 0 0 0 1009.5 1008.6 0.0
23/04:30am 20.4 20.4 13.6 65 3.9 E 6 9 3 5 1009.4 1008.5 0.0
23/04:00am 20.3 21.5 13.7 66 3.8 CALM 0 0 0 0 1009.4 1008.5 0.0
23/03:30am 20.4 21.5 13.6 65 3.9 CALM 0 6 0 3 1009.5 1008.6 0.0
23/03:00am 20.6 21.7 13.6 64 4.1 CALM 0 0 0 0 1009.6 1008.7 0.0
23/02:30am 20.5 20.6 13.9 66 3.8 SW 6 7 3 4 1010.0 1009.2 0.0
23/02:00am 20.9 22.5 14.8 68 3.6 CALM 0 0 0 0 1010.2 1009.4 0.0
23/01:30am 21.2 22.5 14.1 64 4.2 CALM 0 6 0 3 1010.3 1009.5 0.0
23/01:00am 21.4 22.5 14.6 65 4.0 N 2 7 1 4 1010.2 1009.4 0.0
23/12:30am 22.4 23.5 14.5 61 4.7 ENE 2 6 1 3 1010.4 1009.6 0.0
23/12:00am 23.4 23.3 13.8 54 5.7 ESE 7 9 4 5 1010.6 1009.8 0.0
 
Date/Time
EDT
Temp
°C
App
Temp
°C
Dew
Point
°C
Rel
Hum
%
Delta-T
°C
Wind Press
QNH
hPa
Press
MSL
hPa
Rain since
9am
mm
Dir  Spd
km/h
Gust
km/h
Spd
kts
Gust
kts
22/11:30pm 22.6 23.8 13.9 58 5.1 CALM 0 0 0 0 1010.8 1010.0 0.0
22/11:00pm 24.0 24.2 14.7 56 5.6 NNW 7 9 4 5 1010.9 1010.1 0.0
22/10:30pm 23.9 25.1 13.7 53 6.0 CALM 0 0 0 0 1010.9 1010.1 0.0
22/10:00pm 25.5 25.2 12.7 45 7.5 SE 6 9 3 5 1010.9 1010.1 0.0
22/09:30pm 27.3 26.5 12.9 41 8.5 ESE 9 11 5 6 1010.9 1010.1 0.0
22/09:00pm 27.9 26.9 12.3 38 9.1 SE 9 15 5 8 1010.8 1010.0 0.0
22/08:30pm 28.4 26.9 11.9 36 9.6 SSE 11 15 6 8 1010.6 1009.8 0.0
22/08:00pm 30.3 28.2 11.3 31 11.1 ESE 13 19 7 10 1010.5 1009.7 0.0
22/07:30pm 31.3 29.2 11.1 29 11.8 SE 13 17 7 9 1010.5 1009.7 0.0
22/07:00pm 32.1 30.2 11.8 29 12.0 SE 13 17 7 9 1010.4 1009.6 0.0
22/06:30pm 32.2 30.4 10.8 27 12.5 S 11 17 6 9 1010.3 1009.5 0.0
22/06:00pm 32.4 30.6 12.1 29 12.1 S 13 20 7 11 1010.4 1009.6 0.0
22/05:30pm 32.5 30.7 12.2 29 12.1 S 13 20 7 11 1010.6 1009.8 0.0
22/05:00pm 32.1 29.7 11.3 28 12.2 S 15 19 8 10 1010.8 1010.0 0.0
22/04:30pm 32.0 29.5 11.2 28 12.2 SSE 15 22 8 12 1011.3 1010.5 0.0
22/04:00pm 31.5 29.3 10.8 28 12.0 SE 13 20 7 11 1011.6 1010.8 0.0
22/03:30pm 31.8 29.9 13.1 32 11.3 SSE 15 20 8 11 1011.9 1011.1 0.0
22/03:00pm 31.0 28.7 11.9 31 11.3 SSE 15 20 8 11 1012.2 1011.4 0.0
22/02:30pm 30.7 28.7 12.6 33 10.8 SSE 15 28 8 15 1012.5 1011.7 0.0
22/02:00pm 29.7 28.3 10.8 31 10.9 E 9 20 5 11 1012.8 1012.0 0.0
22/01:30pm 30.1 28.8 12.5 34 10.4 E 11 19 6 10 1013.3 1012.5 0.0
22/01:00pm 29.2 28.3 12.6 36 9.8 N 9 13 5 7 1013.8 1013.0 0.0
22/12:30pm 28.1 27.4 12.0 36 9.4 NE 7 15 4 8 1014.3 1013.5 0.0
22/12:00pm 28.1 27.3 12.8 38 9.0 E 9 17 5 9 1014.7 1013.9 0.0
22/11:30am 26.8 25.8 13.5 44 7.9 NE 11 19 6 10 1014.9 1014.1 0.0
22/11:00am 25.1 24.2 12.7 46 7.2 ENE 9 19 5 10 1015.1 1014.4 0.0
22/10:30am 25.3 24.8 13.8 49 6.8 ESE 9 17 5 9 1015.3 1014.6 0.0
22/10:00am 24.1 23.2 13.6 52 6.2 ESE 11 17 6 9 1015.6 1014.9 0.0
22/09:30am 22.7 20.9 12.0 50 6.1 SE 13 20 7 11 1016.0 1015.2 0.0
22/09:00am 21.5 20.6 13.7 61 4.5 SE 11 15 6 8 1016.1 1015.3 0.0
22/08:30am 20.2 19.9 13.4 65 3.9 SE 7 11 4 6 1016.1 1015.3 0.0
22/08:00am 18.8 18.4 13.0 69 3.3 SE 7 9 4 5 1015.6 1014.9 0.0
22/07:30am 17.8 17.4 12.5 71 3.0 ESE 6 9 3 5 1015.4 1014.7 0.0
22/07:00am 15.8 16.6 12.7 82 1.7 CALM 0 0 0 0 1015.2 1014.5 0.0
22/06:30am 15.0 15.7 12.3 84 1.5 CALM 0 6 0 3 1015.0 1014.2 0.0
22/06:00am 15.7 16.3 11.9 78 2.1 CALM 0 0 0 0 1014.8 1014.0 0.0
22/05:30am 15.8 16.4 12.0 78 2.1 CALM 0 0 0 0 1014.4 1013.6 0.0
22/05:00am 15.9 16.7 12.5 80 1.9 CALM 0 2 0 1 1013.9 1013.1 0.0
22/04:30am 16.7 16.3 12.5 76 2.3 NW 6 7 3 4 1013.5 1012.7 0.0
22/04:00am 16.8 17.2 12.5 76 2.4 WSW 2 6 1 3 1013.2 1012.4 0.0
22/03:30am 16.6 17.1 11.7 73 2.7 CALM 0 0 0 0 1013.1 1012.3 0.0
22/03:00am 17.5 17.4 12.2 71 2.9 N 4 7 2 4 1012.9 1012.1 0.0
22/02:30am 18.6 19.2 11.9 65 3.7 CALM 0 4 0 2 1012.7 1011.9 0.0
22/02:00am 18.9 18.8 12.2 65 3.8 NNW 4 9 2 5 1012.7 1011.9 0.0
22/01:30am 19.8 19.6 11.8 60 4.5 SE 4 9 2 5 1012.7 1011.9 0.0
22/01:00am 20.6 19.7 11.2 55 5.2 S 7 11 4 6 1012.7 1011.9 0.0
22/12:30am 22.1 20.1 11.5 51 6.0 SE 13 19 7 10 1012.6 1011.8 0.0
22/12:00am 22.0 21.1 11.4 51 5.9 SE 7 13 4 7 1012.5 1011.7 0.0
 
Date/Time
EDT
Temp
°C
App
Temp
°C
Dew
Point
°C
Rel
Hum
%
Delta-T
°C
Wind Press
QNH
hPa
Press
MSL
hPa
Rain since
9am
mm
Dir  Spd
km/h
Gust
km/h
Spd
kts
Gust
kts
21/11:30pm 20.4 20.6 13.1 63 4.2 NNE 4 7 2 4 1012.5 1011.7 0.0
21/11:00pm 21.1 22.1 13.3 61 4.5 CALM 0 0 0 0 1012.4 1011.6 0.0
21/10:30pm 22.1 21.5 12.4 54 5.5 SSE 7 9 4 5 1012.3 1011.5 0.0
21/10:00pm 22.2 21.2 12.2 53 5.7 SSW 9 11 5 6 1012.3 1011.5 0.0
21/09:30pm 24.0 22.8 12.9 50 6.4 SSE 11 15 6 8 1012.0 1011.2 0.0
21/09:00pm 24.0 23.1 11.3 45 7.2 SE 7 9 4 5 1011.7 1010.9 0.0
21/08:30pm 26.1 24.5 10.3 37 8.9 SE 9 11 5 6 1011.5 1010.7 0.0
21/08:00pm 27.6 25.4 9.4 32 10.1 SE 11 15 6 8 1011.3 1010.5 0.0
21/07:30pm 28.4 26.3 9.6 31 10.5 SSE 11 15 6 8 1011.0 1010.2 0.0
21/07:00pm 29.3 27.7 7.8 26 11.8 SE 6 11 3 6 1010.7 1009.9 0.0
21/06:30pm 29.1 27.5 8.2 27 11.5 ESE 6 15 3 8 1010.6 1009.8 0.0
21/06:00pm 28.9 26.2 7.5 26 11.6 SSE 11 17 6 9 1010.5 1009.7 0.0
21/05:30pm 28.9 27.2 7.5 26 11.6 E 6 9 3 5 1010.6 1009.8 0.0
21/05:00pm 28.7 26.5 7.9 27 11.4 SE 9 19 5 10 1010.6 1009.8 0.0
21/04:30pm 28.3 25.5 8.6 29 10.9 SE 13 20 7 11 1010.7 1009.9 0.0
21/04:00pm 28.3 25.9 10.0 32 10.3 SSE 13 17 7 9 1011.0 1010.2 0.0
21/03:30pm 27.7 25.4 9.0 31 10.4 SE 11 17 6 9 1011.1 1010.3 0.0
21/03:00pm 26.7 24.5 9.5 34 9.6 S 11 15 6 8 1011.4 1010.6 0.0
21/02:30pm 26.5 24.2 8.9 33 9.7 ESE 11 19 6 10 1011.5 1010.7 0.0
21/02:00pm 26.0 24.3 9.8 36 9.0 SE 9 15 5 8 1011.7 1010.9 0.0
21/01:30pm 25.6 23.3 9.0 35 9.1 SSE 11 20 6 11 1011.9 1011.1 0.0
21/01:00pm 24.4 21.1 8.0 35 8.8 SSE 15 20 8 11 1012.1 1011.3 0.0
21/12:30pm 24.2 21.9 9.0 38 8.3 SSE 11 20 6 11 1012.3 1011.5 0.0
21/12:00pm 23.1 21.2 9.1 41 7.6 SSE 9 19 5 10 1012.4 1011.6 0.0
21/11:30am 22.4 19.7 8.9 42 7.3 SE 13 20 7 11 1012.5 1011.7 0.0
21/11:00am 21.5 19.0 8.4 43 6.9 SE 11 19 6 10 1012.5 1011.7 0.0
21/10:30am 21.2 19.3 9.1 46 6.5 SE 9 13 5 7 1012.4 1011.6 0.0
21/10:00am 20.1 17.5 9.4 50 5.7 SE 13 19 7 10 1012.5 1011.7 0.0
21/09:30am 18.7 16.1 9.2 54 5.0 SSE 13 17 7 9 1012.4 1011.6 0.0
21/09:00am 17.6 15.8 10.7 64 3.7 S 11 15 6 8 1012.3 1011.5 2.6
21/08:30am 16.1 14.4 10.0 67 3.2 SSE 9 11 5 6 1012.1 1011.3 2.6
21/08:00am 14.7 12.7 10.1 74 2.4 S 11 13 6 7 1011.8 1011.0 2.6
21/07:30am 13.9 12.9 10.3 79 1.9 S 6 9 3 5 1011.5 1010.7 2.6
21/07:00am 12.4 11.5 10.6 89 0.9 S 6 7 3 4 1011.0 1010.2 2.6
21/06:30am 11.6 11.7 10.0 90 0.8 CALM 0 0 0 0 1010.4 1009.6 2.6
21/06:00am 11.6 11.7 10.0 90 0.8 CALM 0 0 0 0 1009.8 1009.0 2.6
21/05:30am 12.3 12.3 9.9 85 1.2 CALM 0 0 0 0 1009.1 1008.3 2.6
21/05:00am 12.7 12.8 10.2 85 1.3 CALM 0 0 0 0 1008.8 1008.0 2.6
21/04:30am 12.9 13.0 10.3 84 1.4 CALM 0 7 0 4 1008.3 1007.5 2.6
21/04:00am 13.0 13.1 10.0 82 1.6 CALM 0 0 0 0 1007.9 1007.1 2.6
21/03:30am 13.8 13.4 9.6 76 2.2 N 2 9 1 5 1007.5 1006.7 2.6
21/03:00am 13.8 13.0 9.8 77 2.1 NW 4 9 2 5 1007.2 1006.4 2.6
21/02:30am 14.8 14.9 10.2 74 2.4 CALM 0 0 0 0 1006.9 1006.1 2.6
21/02:00am 14.6 13.3 10.0 74 2.4 NNW 7 11 4 6 1006.7 1005.9 2.6
21/01:30am 14.8 14.0 9.8 72 2.6 NW 4 7 2 4 1006.3 1005.5 2.6
21/01:00am 15.6 14.4 10.4 71 2.8 N 7 11 4 6 1006.1 1005.3 2.6
21/12:30am 16.6 15.6 10.2 66 3.4 WNW 6 7 3 4 1005.7 1004.9 2.6
21/12:00am 16.7 15.3 9.4 62 3.8 SW 7 11 4 6 1005.0 1004.2 2.6
 
Date/Time
EDT
Temp
°C
App
Temp
°C
Dew
Point
°C
Rel
Hum
%
Delta-T
°C
Wind Press
QNH
hPa
Press
MSL
hPa
Rain since
9am
mm
Dir  Spd
km/h
Gust
km/h
Spd
kts
Gust
kts
20/11:30pm 17.3 16.1 9.7 61 4.0 W 6 13 3 7 1004.7 1003.9 2.6
20/11:00pm 17.5 14.3 9.9 61 4.1 WSW 17 20 9 11 1004.0 1003.1 2.6
20/10:30pm 18.0 15.2 9.9 59 4.3 WSW 15 22 8 12 1003.5 1002.6 2.6
20/10:00pm 19.0 14.7 9.5 54 5.1 W 22 32 12 17 1002.8 1002.0 2.6
20/09:30pm 19.6 15.0 9.5 52 5.4 W 24 32 13 17 1002.4 1001.6 2.6
20/09:00pm 20.1 15.4 9.4 50 5.8 WSW 24 37 13 20 1001.9 1001.1 2.6
20/08:30pm 20.6 15.9 9.2 48 6.1 SW 24 37 13 20 1001.6 1000.8 2.6
20/08:00pm 21.7 16.7 9.6 46 6.6 WSW 26 44 14 24 1000.9 1000.1 2.6
20/07:30pm 22.8 17.2 10.3 45 6.9 SW 30 43 16 23 1000.0 999.2 2.6
20/07:00pm 23.2 18.8 11.6 48 6.6 WSW 26 37 14 20 999.4 998.6 2.6
20/06:30pm 23.7 18.5 11.7 47 6.8 WSW 30 43 16 23 998.8 997.9 2.6
20/06:00pm 24.3 19.7 12.3 47 6.9 SW 28 44 15 24 998.5 997.6 2.6
20/05:39pm 24.4 19.1 12.4 47 6.9 WSW 32 50 17 27 998.2 997.3 2.6
20/05:30pm 25.2 20.1 13.1 47 7.1 WSW 32 43 17 23 998.1 997.2 2.6
20/05:00pm 25.1 19.7 12.7 46 7.3 WSW 33 41 18 22 997.7 996.8 2.6
20/04:30pm 25.9 21.4 12.7 44 7.7 WSW 28 39 15 21 997.3 996.4 2.6
20/04:05pm 26.5 21.2 14.3 47 7.3 WSW 35 54 19 29 996.8 995.9 2.6
20/04:00pm 26.6 21.6 15.0 49 7.1 WSW 35 50 19 27 996.7 995.8 2.6
20/03:54pm 26.9 23.5 15.9 51 6.8 WSW 28 48 15 26 996.7 995.8 2.6
20/03:30pm 27.7 25.5 18.7 58 5.8 WSW 28 41 15 22 996.5 995.7 2.6
20/03:00pm 25.7 23.4 17.6 61 5.1 WSW 26 35 14 19 996.8 995.9 2.4
20/02:30pm 24.4 23.9 19.2 73 3.3 SW 20 30 11 16 996.8 995.9 2.4
20/02:00pm 23.3 21.4 18.6 75 3.0 WSW 26 37 14 20 996.8 995.9 2.4
20/01:34pm 22.9 22.5 20.1 84 1.8 WSW 22 30 12 16 996.7 995.8 2.4
20/01:30pm 22.9 22.4 19.9 83 1.9 WSW 22 30 12 16 996.4 995.6 2.4
20/01:11pm 22.1 22.3 20.6 91 1.0 W 20 28 11 15 996.2 995.4 2.4
20/01:02pm 22.1 22.0 20.7 92 0.9 W 22 30 12 16 996.2 995.4 2.4
20/01:00pm 22.2 22.1 20.8 92 0.9 W 22 30 12 16 996.2 995.4 2.4
20/12:30pm 22.3 22.4 21.1 93 0.8 W 22 35 12 19 996.4 995.6 2.2
20/12:19pm 22.1 21.8 21.1 94 0.7 W 24 33 13 18 996.5 995.7 2.2
20/12:00pm 21.2 21.7 20.9 98 0.2 W 19 28 10 15 996.5 995.7 2.2
20/11:39am 21.0 22.3 20.2 95 0.5 WNW 13 19 7 10 996.3 995.5 1.6
20/11:30am 21.1 22.9 20.3 95 0.5 NNW 11 17 6 9 995.8 995.0 1.2
20/11:03am 20.7 22.4 20.2 97 0.3 NNW 11 17 6 9 996.2 995.4 0.8
20/11:00am 20.6 22.2 19.9 96 0.5 NNW 11 20 6 11 996.1 995.3 0.8
20/10:52am 20.4 21.9 19.7 96 0.4 NW 11 20 6 11 996.2 995.4 0.6
20/10:30am 20.5 20.8 19.5 94 0.6 N 17 22 9 12 996.1 995.3 0.2
20/10:00am 20.2 21.2 19.5 96 0.4 NNE 13 17 7 9 996.3 995.5 0.2
20/09:41am 19.9 21.7 19.6 98 0.2 NE 9 15 5 8 996.8 995.9 0.2
20/09:30am 19.8 20.9 19.6 99 0.1 NNE 13 19 7 10 996.9 996.0 0.2

Other Formats:

Comma delimited format used in spreadsheet applications
http://www.bom.gov.au/fwo/IDN60801/IDN60801.95896.axf

JavaScript Object Notation format (JSON) in row-major order
http://www.bom.gov.au/fwo/IDN60801/IDN60801.95896.json